Time;durP1;ratioP1;P1;durP2;ratioP2;P2;SDS_P1;SDS_P2;PMS_P1;PMS_P2;Temp;Humidity;BMP_temperature;BMP_pressure;BME280_temperature;BME280_humidity;BME280_pressure;Samples;Min_cycle;Max_cycle;Signal;HPM_P1;HPM_P2
2023/06/28 00:01:23;;;;;;;;;;;14.50;62.00;;;;;;4157409;28;19940;-86
2023/06/28 00:03:24;;;;;;;;;;;14.50;62.00;;;;;;4158242;28;19917;-85
2023/06/28 00:05:25;;;;;;;;;;;14.50;62.10;;;;;;4114674;28;20447;-85
2023/06/28 00:07:25;;;;;;;;;;;14.50;62.50;;;;;;4137630;28;19918;-86
2023/06/28 00:09:27;;;;;;;;;;;14.50;62.30;;;;;;4155743;28;19928;-86
2023/06/28 00:11:28;;;;;;;;;;;14.50;62.50;;;;;;4142625;28;19921;-86
2023/06/28 00:13:28;;;;;;;;;;;14.50;62.30;;;;;;4138896;28;20307;-84
2023/06/28 00:15:29;;;;;;;;;;;14.40;62.30;;;;;;4140894;28;19920;-84
2023/06/28 00:17:30;;;;;;;;;;;14.50;62.30;;;;;;4158995;28;19913;-86
2023/06/28 00:19:32;;;;;;;;;;;14.40;62.50;;;;;;4126856;28;19917;-85
2023/06/28 00:21:33;;;;;;;;;;;14.50;62.40;;;;;;4119077;28;19918;-85
2023/06/28 00:23:33;;;;;;;;;;;14.50;62.50;;;;;;4140211;28;20429;-85
2023/06/28 00:25:37;;;;;;;;;;;14.40;62.30;;;;;;4128358;28;20024;-85
2023/06/28 00:27:37;;;;;;;;;;;14.50;62.40;;;;;;4144625;28;20004;-86
2023/06/28 00:29:38;;;;;;;;;;;14.40;62.50;;;;;;4145642;28;20191;-86
2023/06/28 00:31:39;;;;;;;;;;;14.40;62.30;;;;;;4144375;28;19921;-85
2023/06/28 00:33:41;;;;;;;;;;;14.40;62.60;;;;;;4128960;28;19914;-87
2023/06/28 00:35:49;;;;;;;;;;;14.40;62.50;;;;;;4128610;28;19921;-85
2023/06/28 00:37:49;;;;;;;;;;;14.40;62.50;;;;;;4162417;28;19924;-85
2023/06/28 00:39:50;;;;;;;;;;;14.40;62.60;;;;;;4161167;28;19917;-86
2023/06/28 00:41:51;;;;;;;;;;;14.40;62.60;;;;;;4149563;28;19964;-86
2023/06/28 00:43:51;;;;;;;;;;;14.40;62.60;;;;;;4126489;28;19913;-85
2023/06/28 00:45:55;;;;;;;;;;;14.30;62.60;;;;;;4146454;28;19917;-85
2023/06/28 00:47:56;;;;;;;;;;;14.30;62.60;;;;;;4160741;28;19968;-87
2023/06/28 00:49:56;;;;;;;;;;;14.30;62.60;;;;;;4158219;28;19932;-85
2023/06/28 00:51:58;;;;;;;;;;;14.30;62.70;;;;;;4139181;28;19914;-85
2023/06/28 00:53:59;;;;;;;;;;;14.30;62.70;;;;;;4143199;28;20351;-84
2023/06/28 00:55:59;;;;;;;;;;;14.30;62.80;;;;;;4158957;28;19921;-87
2023/06/28 00:58:00;;;;;;;;;;;14.30;62.70;;;;;;4121633;28;19918;-85
2023/06/28 01:00:01;;;;;;;;;;;14.30;62.90;;;;;;4159405;28;20003;-85
2023/06/28 01:02:02;;;;;;;;;;;14.30;62.80;;;;;;4140020;28;19948;-85
2023/06/28 01:04:06;;;;;;;;;;;14.30;62.80;;;;;;4160234;28;19921;-86
2023/06/28 01:06:06;;;;;;;;;;;14.30;62.80;;;;;;4145118;28;19913;-84
2023/06/28 01:08:07;;;;;;;;;;;14.30;62.90;;;;;;4160785;28;20009;-86
2023/06/28 01:10:08;;;;;;;;;;;14.30;62.80;;;;;;4139259;28;20092;-86
2023/06/28 01:12:09;;;;;;;;;;;14.30;62.80;;;;;;4126602;28;20279;-86
2023/06/28 01:14:09;;;;;;;;;;;14.20;62.80;;;;;;4142448;28;20003;-86
2023/06/28 01:16:13;;;;;;;;;;;14.20;62.90;;;;;;4139921;28;19913;-86
2023/06/28 01:18:14;;;;;;;;;;;14.20;62.90;;;;;;4122741;28;19959;-86
2023/06/28 01:20:15;;;;;;;;;;;14.20;63.00;;;;;;4139459;28;20344;-85
2023/06/28 01:22:16;;;;;;;;;;;14.20;63.00;;;;;;4124805;28;19925;-86
2023/06/28 01:24:21;;;;;;;;;;;14.20;63.00;;;;;;4159853;28;19963;-86
2023/06/28 01:26:22;;;;;;;;;;;14.20;63.00;;;;;;4158515;28;19913;-86
2023/06/28 01:28:23;;;;;;;;;;;14.20;63.00;;;;;;4159876;28;19928;-86
2023/06/28 01:30:25;;;;;;;;;;;14.20;63.00;;;;;;4143268;28;19933;-85
2023/06/28 01:32:26;;;;;;;;;;;14.20;63.10;;;;;;4140309;28;19921;-85
2023/06/28 01:34:28;;;;;;;;;;;14.20;63.10;;;;;;4158623;28;20015;-86
2023/06/28 01:36:29;;;;;;;;;;;14.20;63.10;;;;;;4142730;28;20307;-85
2023/06/28 01:38:31;;;;;;;;;;;14.20;63.20;;;;;;4125550;28;19920;-86
2023/06/28 01:40:35;;;;;;;;;;;14.20;63.20;;;;;;4128677;28;20257;-86
2023/06/28 01:42:37;;;;;;;;;;;14.20;63.20;;;;;;4123814;28;19920;-86
2023/06/28 01:44:37;;;;;;;;;;;14.20;63.20;;;;;;4159621;28;19956;-86
2023/06/28 01:46:39;;;;;;;;;;;14.10;63.20;;;;;;4142438;28;19929;-86
2023/06/28 01:48:40;;;;;;;;;;;14.10;63.10;;;;;;4141490;28;19918;-86
2023/06/28 01:50:40;;;;;;;;;;;14.10;63.10;;;;;;4143170;28;20371;-85
2023/06/28 01:52:41;;;;;;;;;;;14.10;63.10;;;;;;4141428;28;20421;-87
2023/06/28 01:54:42;;;;;;;;;;;14.10;63.20;;;;;;4142190;28;19917;-86
2023/06/28 01:56:42;;;;;;;;;;;14.10;63.30;;;;;;4158500;28;19921;-86
2023/06/28 01:58:43;;;;;;;;;;;14.10;63.50;;;;;;4143498;28;19963;-85
2023/06/28 02:00:43;;;;;;;;;;;14.10;63.50;;;;;;4156309;28;20347;-86
2023/06/28 02:02:44;;;;;;;;;;;14.10;63.60;;;;;;4124452;28;19914;-86
2023/06/28 02:04:46;;;;;;;;;;;14.10;63.90;;;;;;4140543;28;20022;-86
2023/06/28 02:06:47;;;;;;;;;;;14.00;63.70;;;;;;4141951;28;19941;-85
2023/06/28 02:08:48;;;;;;;;;;;14.00;63.60;;;;;;4159971;28;19921;-84
2023/06/28 02:10:51;;;;;;;;;;;14.00;63.60;;;;;;4139800;28;19934;-85
2023/06/28 02:12:52;;;;;;;;;;;14.00;63.60;;;;;;4158224;28;20473;-85
2023/06/28 02:14:53;;;;;;;;;;;14.10;63.60;;;;;;4139559;28;20000;-86
2023/06/28 02:16:54;;;;;;;;;;;14.00;63.70;;;;;;4146795;28;19913;-86
2023/06/28 02:18:57;;;;;;;;;;;14.00;63.80;;;;;;4143779;28;19965;-86
2023/06/28 02:20:57;;;;;;;;;;;13.90;63.60;;;;;;4144002;28;20541;-85
2023/06/28 02:23:04;;;;;;;;;;;13.90;63.70;;;;;;4140470;28;19921;-85
2023/06/28 02:25:06;;;;;;;;;;;13.90;63.70;;;;;;4127678;28;20333;-84
2023/06/28 02:27:10;;;;;;;;;;;13.90;63.70;;;;;;4143727;28;19956;-86
2023/06/28 02:29:11;;;;;;;;;;;13.80;63.70;;;;;;4141279;28;19914;-86
2023/06/28 02:31:12;;;;;;;;;;;13.80;63.80;;;;;;4139953;28;20394;-85
2023/06/28 02:33:13;;;;;;;;;;;13.80;63.90;;;;;;4139831;28;20437;-86
2023/06/28 02:35:14;;;;;;;;;;;13.80;63.80;;;;;;4141538;28;19909;-84
2023/06/28 02:37:18;;;;;;;;;;;13.70;63.80;;;;;;4140194;28;19922;-85
2023/06/28 02:39:38;;;;;;;;;;;13.80;63.90;;;;;;4157929;28;20057;-86
2023/06/28 02:41:51;;;;;;;;;;;13.70;63.70;;;;;;4142964;28;19921;-84
2023/06/28 02:44:11;;;;;;;;;;;13.70;63.80;;;;;;4158615;28;19992;-86
2023/06/28 02:46:32;;;;;;;;;;;13.70;63.70;;;;;;4156481;28;19962;-85
2023/06/28 02:48:53;;;;;;;;;;;13.70;63.90;;;;;;4161601;28;19917;-85
2023/06/28 02:51:13;;;;;;;;;;;13.60;64.20;;;;;;4159623;28;19964;-84
2023/06/28 02:53:34;;;;;;;;;;;13.60;64.10;;;;;;4142245;28;19909;-84
2023/06/28 02:55:54;;;;;;;;;;;13.60;64.20;;;;;;4158368;28;20114;-85
2023/06/28 02:57:55;;;;;;;;;;;13.50;64.20;;;;;;4160343;28;20001;-85
2023/06/28 03:00:15;;;;;;;;;;;13.50;65.10;;;;;;4144107;28;19977;-85
2023/06/28 03:02:36;;;;;;;;;;;13.50;64.40;;;;;;4157125;28;19921;-85
2023/06/28 03:04:40;;;;;;;;;;;13.50;64.60;;;;;;4127718;28;19910;-83
2023/06/28 03:07:00;;;;;;;;;;;13.40;64.80;;;;;;4159617;28;19913;-84
2023/06/28 03:09:21;;;;;;;;;;;13.40;64.70;;;;;;4143724;28;20009;-85
2023/06/28 03:11:42;;;;;;;;;;;13.40;65.30;;;;;;4160403;28;19927;-84
2023/06/28 03:14:02;;;;;;;;;;;13.40;65.00;;;;;;4141979;28;20000;-85
2023/06/28 03:16:23;;;;;;;;;;;13.40;65.10;;;;;;4142524;28;19956;-85
2023/06/28 03:18:43;;;;;;;;;;;13.30;65.10;;;;;;4160365;28;19913;-85
2023/06/28 03:21:04;;;;;;;;;;;13.30;65.10;;;;;;4143985;28;20330;-85
2023/06/28 03:23:24;;;;;;;;;;;13.30;65.00;;;;;;4146635;28;19976;-85
2023/06/28 03:25:45;;;;;;;;;;;13.30;65.00;;;;;;4159369;28;19909;-84
2023/06/28 03:28:09;;;;;;;;;;;13.30;65.10;;;;;;4144413;28;19916;-84
2023/06/28 03:30:29;;;;;;;;;;;13.30;65.20;;;;;;4139291;28;19921;-85
2023/06/28 03:32:56;;;;;;;;;;;13.30;65.20;;;;;;4141330;28;19921;-85
2023/06/28 03:35:16;;;;;;;;;;;13.20;65.60;;;;;;4160527;28;20012;-85
2023/06/28 03:37:37;;;;;;;;;;;13.20;65.70;;;;;;4160073;28;19948;-85
2023/06/28 03:39:58;;;;;;;;;;;13.20;65.80;;;;;;4157170;28;20174;-85
2023/06/28 03:42:18;;;;;;;;;;;13.30;65.90;;;;;;4159256;28;19924;-84
2023/06/28 03:44:39;;;;;;;;;;;13.30;66.20;;;;;;4158787;28;19922;-85
2023/06/28 03:46:59;;;;;;;;;;;13.30;66.00;;;;;;4161879;28;19921;-85
2023/06/28 03:49:20;;;;;;;;;;;13.30;66.10;;;;;;4143799;28;19964;-85
2023/06/28 03:51:40;;;;;;;;;;;13.40;66.20;;;;;;4165072;28;19928;-86
2023/06/28 03:54:01;;;;;;;;;;;13.40;66.60;;;;;;4163654;28;19967;-85
2023/06/28 03:56:22;;;;;;;;;;;13.50;66.90;;;;;;4159915;28;19909;-84
2023/06/28 03:58:43;;;;;;;;;;;13.50;67.10;;;;;;4159772;28;19956;-84
2023/06/28 04:01:04;;;;;;;;;;;13.60;68.20;;;;;;4159143;28;19913;-84
2023/06/28 04:03:26;;;;;;;;;;;13.70;68.20;;;;;;4159809;28;20374;-85
2023/06/28 04:05:46;;;;;;;;;;;13.70;67.30;;;;;;4162407;28;19923;-84
2023/06/28 04:08:08;;;;;;;;;;;13.80;67.50;;;;;;4147560;28;20008;-85
2023/06/28 04:10:30;;;;;;;;;;;13.90;67.10;;;;;;4145088;28;19925;-84
2023/06/28 04:12:30;;;;;;;;;;;13.90;67.60;;;;;;4137323;28;19922;-85
2023/06/28 04:14:31;;;;;;;;;;;14.00;67.50;;;;;;4162435;28;20753;-85
2023/06/28 04:16:31;;;;;;;;;;;14.10;68.10;;;;;;4158656;28;20019;-86
2023/06/28 04:18:32;;;;;;;;;;;14.20;67.60;;;;;;4128530;28;19917;-85
2023/06/28 04:20:33;;;;;;;;;;;14.20;68.30;;;;;;4138688;28;19948;-85
2023/06/28 04:22:34;;;;;;;;;;;14.30;67.60;;;;;;4127552;28;20296;-85
2023/06/28 04:24:35;;;;;;;;;;;14.40;67.80;;;;;;4142594;28;19988;-84
2023/06/28 04:26:36;;;;;;;;;;;14.40;67.50;;;;;;4125537;28;19918;-85
2023/06/28 04:28:36;;;;;;;;;;;14.50;67.60;;;;;;4140106;28;20411;-84
2023/06/28 04:30:37;;;;;;;;;;;14.60;67.60;;;;;;4143173;28;19913;-84
2023/06/28 04:32:38;;;;;;;;;;;14.70;67.60;;;;;;4128810;28;19918;-85
2023/06/28 04:34:39;;;;;;;;;;;14.70;67.40;;;;;;4144882;28;19925;-85
2023/06/28 04:36:39;;;;;;;;;;;14.80;67.60;;;;;;4142512;28;19945;-85
2023/06/28 04:38:41;;;;;;;;;;;14.90;67.60;;;;;;4159041;28;19913;-86
2023/06/28 04:40:42;;;;;;;;;;;14.90;67.80;;;;;;4128772;28;19921;-84
2023/06/28 04:42:45;;;;;;;;;;;15.00;68.00;;;;;;4160834;28;19921;-85
2023/06/28 04:44:48;;;;;;;;;;;15.10;67.90;;;;;;4141543;28;19913;-86
2023/06/28 04:46:49;;;;;;;;;;;15.20;67.90;;;;;;4139892;28;20330;-86
2023/06/28 04:48:55;;;;;;;;;;;15.20;68.00;;;;;;4127486;28;19958;-84
2023/06/28 04:50:55;;;;;;;;;;;15.30;68.20;;;;;;4158708;28;20043;-84
2023/06/28 04:52:56;;;;;;;;;;;15.30;67.90;;;;;;4142005;28;19921;-84
2023/06/28 04:54:57;;;;;;;;;;;15.40;67.70;;;;;;4129131;28;20041;-85
2023/06/28 04:56:57;;;;;;;;;;;15.50;67.80;;;;;;4161107;28;19909;-84
2023/06/28 04:58:58;;;;;;;;;;;15.50;67.80;;;;;;4129440;28;19917;-85
2023/06/28 05:00:59;;;;;;;;;;;15.50;67.50;;;;;;4145925;28;19913;-85
2023/06/28 05:03:00;;;;;;;;;;;15.60;67.50;;;;;;4160692;28;19917;-85
2023/06/28 05:05:00;;;;;;;;;;;15.70;67.40;;;;;;4159699;28;19917;-85
2023/06/28 05:07:04;;;;;;;;;;;15.70;67.40;;;;;;4139401;28;19918;-84
2023/06/28 05:09:04;;;;;;;;;;;15.80;67.20;;;;;;4159433;28;20382;-84
2023/06/28 05:11:07;;;;;;;;;;;15.80;67.20;;;;;;4142320;28;19917;-85
2023/06/28 05:13:07;;;;;;;;;;;15.80;66.90;;;;;;4139048;28;20156;-85
2023/06/28 05:15:08;;;;;;;;;;;15.90;66.90;;;;;;4141474;28;19921;-84
2023/06/28 05:17:09;;;;;;;;;;;15.90;66.90;;;;;;4136737;28;19956;-86
2023/06/28 05:19:09;;;;;;;;;;;15.90;66.70;;;;;;4154844;28;19972;-84
2023/06/28 05:21:10;;;;;;;;;;;16.00;66.80;;;;;;4143610;28;19976;-84
2023/06/28 05:23:14;;;;;;;;;;;16.00;66.70;;;;;;4179591;28;19940;-83
2023/06/28 05:25:18;;;;;;;;;;;16.10;66.70;;;;;;4180089;28;19909;-84
2023/06/28 05:27:20;;;;;;;;;;;16.20;66.60;;;;;;4178653;28;19983;-85
2023/06/28 05:29:20;;;;;;;;;;;16.20;66.50;;;;;;4162582;28;19909;-85
2023/06/28 05:31:21;;;;;;;;;;;16.20;66.40;;;;;;4169773;28;19929;-84
2023/06/28 05:33:22;;;;;;;;;;;16.30;66.50;;;;;;4168355;28;20011;-84
2023/06/28 05:35:23;;;;;;;;;;;16.30;66.20;;;;;;4133219;28;19917;-84
2023/06/28 05:37:23;;;;;;;;;;;16.40;66.40;;;;;;4163352;28;19913;-84
2023/06/28 05:39:24;;;;;;;;;;;16.50;66.50;;;;;;4147839;28;19917;-84
2023/06/28 05:41:25;;;;;;;;;;;16.50;66.50;;;;;;4161867;28;20454;-85
2023/06/28 05:43:26;;;;;;;;;;;16.60;66.40;;;;;;4167113;28;19917;-84
2023/06/28 05:45:27;;;;;;;;;;;16.60;66.20;;;;;;4163259;28;19925;-83
2023/06/28 05:47:28;;;;;;;;;;;16.70;66.20;;;;;;4146265;28;19917;-84
2023/06/28 05:49:28;;;;;;;;;;;16.70;65.80;;;;;;4162932;28;20004;-84
2023/06/28 05:51:30;;;;;;;;;;;16.80;65.60;;;;;;4147426;28;19969;-85
2023/06/28 05:53:30;;;;;;;;;;;16.80;65.20;;;;;;4163860;28;19924;-84
2023/06/28 05:55:31;;;;;;;;;;;16.80;65.20;;;;;;4164536;28;19913;-85
2023/06/28 05:57:31;;;;;;;;;;;16.90;65.20;;;;;;4127833;28;19915;-83
2023/06/28 05:59:32;;;;;;;;;;;17.00;65.30;;;;;;4128948;28;19976;-84
2023/06/28 06:01:33;;;;;;;;;;;17.00;65.10;;;;;;4163539;28;19913;-84
2023/06/28 06:03:33;;;;;;;;;;;17.00;64.90;;;;;;4161814;28;20349;-84
2023/06/28 06:05:34;;;;;;;;;;;17.00;64.90;;;;;;4142109;28;19967;-84
2023/06/28 06:07:39;;;;;;;;;;;17.10;64.90;;;;;;4164659;28;19951;-82
2023/06/28 06:09:39;;;;;;;;;;;17.20;64.90;;;;;;4164075;28;19920;-83
2023/06/28 06:11:40;;;;;;;;;;;17.20;64.90;;;;;;4144468;28;20526;-85
2023/06/28 06:13:41;;;;;;;;;;;17.30;65.00;;;;;;4128911;28;19910;-84
2023/06/28 06:15:41;;;;;;;;;;;17.30;64.90;;;;;;4144844;28;19928;-84
2023/06/28 06:17:42;;;;;;;;;;;17.30;64.70;;;;;;4163571;28;20365;-84
2023/06/28 06:19:42;;;;;;;;;;;17.40;64.60;;;;;;4145138;28;20487;-84
2023/06/28 06:21:43;;;;;;;;;;;17.50;64.40;;;;;;4162362;28;19921;-84
2023/06/28 06:23:45;;;;;;;;;;;17.50;64.20;;;;;;4146202;28;19944;-83
2023/06/28 06:25:45;;;;;;;;;;;17.60;64.00;;;;;;4150727;28;20837;-84
2023/06/28 06:27:46;;;;;;;;;;;17.60;63.70;;;;;;4132847;28;19914;-84
2023/06/28 06:29:46;;;;;;;;;;;17.60;63.50;;;;;;4161871;28;19921;-83
2023/06/28 06:31:47;;;;;;;;;;;17.70;63.30;;;;;;4148846;28;19925;-83
2023/06/28 06:33:48;;;;;;;;;;;17.70;63.20;;;;;;4147067;28;20003;-83
2023/06/28 06:35:49;;;;;;;;;;;17.80;62.80;;;;;;4147397;28;20560;-84
2023/06/28 06:37:50;;;;;;;;;;;17.80;62.70;;;;;;4147834;28;19925;-85
2023/06/28 06:39:51;;;;;;;;;;;17.80;62.60;;;;;;4142492;28;19916;-84
2023/06/28 06:41:51;;;;;;;;;;;17.80;62.40;;;;;;4166227;28;19996;-84
2023/06/28 06:43:52;;;;;;;;;;;17.80;62.40;;;;;;4162463;28;19913;-85
2023/06/28 06:45:52;;;;;;;;;;;17.80;62.20;;;;;;4145655;28;19961;-84
2023/06/28 06:47:53;;;;;;;;;;;17.90;62.20;;;;;;4162156;28;19956;-85
2023/06/28 06:49:53;;;;;;;;;;;17.90;62.10;;;;;;4127311;28;19952;-84
2023/06/28 06:51:54;;;;;;;;;;;17.90;62.00;;;;;;4145747;28;20407;-84
2023/06/28 06:53:55;;;;;;;;;;;18.00;61.40;;;;;;4147850;28;20391;-84
2023/06/28 06:55:56;;;;;;;;;;;17.90;61.40;;;;;;4134273;28;19914;-83
2023/06/28 06:57:57;;;;;;;;;;;18.00;61.30;;;;;;4149657;28;19984;-84
2023/06/28 06:59:59;;;;;;;;;;;18.10;61.40;;;;;;4131866;28;19922;-85
2023/06/28 07:01:59;;;;;;;;;;;18.00;61.40;;;;;;4153591;28;19980;-84
2023/06/28 07:04:00;;;;;;;;;;;18.10;61.60;;;;;;4147684;28;20645;-85
2023/06/28 07:06:02;;;;;;;;;;;18.10;61.60;;;;;;4125365;28;21012;-84
2023/06/28 07:08:02;;;;;;;;;;;18.20;61.20;;;;;;4161123;28;19917;-84
2023/06/28 07:10:04;;;;;;;;;;;18.20;61.40;;;;;;4164648;28;20367;-83
2023/06/28 07:12:05;;;;;;;;;;;18.30;61.10;;;;;;4160631;28;19913;-83
2023/06/28 07:14:06;;;;;;;;;;;18.40;60.80;;;;;;4149718;28;19959;-82
2023/06/28 07:16:07;;;;;;;;;;;18.50;60.80;;;;;;4145466;28;20002;-84
2023/06/28 07:18:07;;;;;;;;;;;18.50;59.80;;;;;;4146578;28;20385;-83
2023/06/28 07:20:09;;;;;;;;;;;18.50;59.90;;;;;;4147666;28;20031;-83
2023/06/28 07:22:11;;;;;;;;;;;18.60;59.30;;;;;;4146428;28;19925;-85
2023/06/28 07:24:11;;;;;;;;;;;18.70;59.00;;;;;;4161764;28;19921;-83
2023/06/28 07:26:14;;;;;;;;;;;18.70;58.90;;;;;;4162179;28;19913;-84
2023/06/28 07:28:14;;;;;;;;;;;18.70;59.00;;;;;;4149038;28;19913;-84
2023/06/28 07:30:16;;;;;;;;;;;18.80;58.50;;;;;;4143958;28;19921;-84
2023/06/28 07:32:16;;;;;;;;;;;18.80;58.50;;;;;;4127125;28;20375;-84
2023/06/28 07:34:19;;;;;;;;;;;18.80;58.70;;;;;;4149768;28;20433;-84
2023/06/28 07:36:20;;;;;;;;;;;18.90;59.20;;;;;;4145038;28;19925;-84
2023/06/28 07:38:21;;;;;;;;;;;18.90;58.50;;;;;;4145148;28;20678;-83
2023/06/28 07:40:22;;;;;;;;;;;18.90;58.50;;;;;;4161470;28;20024;-83
2023/06/28 07:42:24;;;;;;;;;;;19.00;58.40;;;;;;4143688;28;19914;-83
2023/06/28 07:44:24;;;;;;;;;;;19.10;58.40;;;;;;4161559;28;19916;-83
2023/06/28 07:46:26;;;;;;;;;;;19.20;57.90;;;;;;4145895;28;20338;-84
2023/06/28 07:48:26;;;;;;;;;;;19.20;57.60;;;;;;4161735;28;19917;-84
2023/06/28 07:50:27;;;;;;;;;;;19.30;57.00;;;;;;4160605;28;19920;-84
2023/06/28 07:52:27;;;;;;;;;;;19.40;56.50;;;;;;4141877;28;20013;-85
2023/06/28 07:54:28;;;;;;;;;;;19.30;56.80;;;;;;4163238;28;19989;-83
2023/06/28 07:56:28;;;;;;;;;;;19.40;57.00;;;;;;4163424;28;19917;-83
2023/06/28 07:58:29;;;;;;;;;;;19.40;56.60;;;;;;4165449;28;19909;-83
2023/06/28 08:00:31;;;;;;;;;;;19.50;56.40;;;;;;4145428;28;19918;-84
2023/06/28 08:02:31;;;;;;;;;;;19.50;56.40;;;;;;4163249;28;20402;-84
2023/06/28 08:04:32;;;;;;;;;;;19.60;55.90;;;;;;4162933;28;19924;-84
2023/06/28 08:06:33;;;;;;;;;;;19.60;55.80;;;;;;4144497;28;19949;-84
2023/06/28 08:08:36;;;;;;;;;;;19.70;55.60;;;;;;4144312;28;20009;-84
2023/06/28 08:10:37;;;;;;;;;;;19.70;55.90;;;;;;4163384;28;19936;-83
2023/06/28 08:12:38;;;;;;;;;;;19.80;56.20;;;;;;4163173;28;19924;-84
2023/06/28 08:14:39;;;;;;;;;;;19.80;56.20;;;;;;4162669;28;19921;-83
2023/06/28 08:16:40;;;;;;;;;;;19.90;56.50;;;;;;4140605;28;20316;-83
2023/06/28 08:18:41;;;;;;;;;;;20.00;57.00;;;;;;4165136;28;19975;-83
2023/06/28 08:20:44;;;;;;;;;;;20.10;56.30;;;;;;4162214;28;19924;-84
2023/06/28 08:22:44;;;;;;;;;;;20.10;55.30;;;;;;4147529;28;19977;-85
2023/06/28 08:24:45;;;;;;;;;;;20.10;54.90;;;;;;4146393;28;19917;-84
2023/06/28 08:26:45;;;;;;;;;;;20.20;53.90;;;;;;4160788;28;19956;-84
2023/06/28 08:28:46;;;;;;;;;;;20.20;54.10;;;;;;4162109;28;19913;-84
2023/06/28 08:30:47;;;;;;;;;;;20.30;53.90;;;;;;4159005;28;20026;-85
2023/06/28 08:32:48;;;;;;;;;;;20.30;54.10;;;;;;4146481;28;20036;-84
2023/06/28 08:34:49;;;;;;;;;;;20.40;54.20;;;;;;4161266;28;20449;-84
2023/06/28 08:36:50;;;;;;;;;;;20.50;53.70;;;;;;4163666;28;19996;-81
2023/06/28 08:38:50;;;;;;;;;;;20.60;53.40;;;;;;4160720;28;20394;-84
2023/06/28 08:40:55;;;;;;;;;;;20.70;53.30;;;;;;4130033;28;20411;-83
2023/06/28 08:43:00;;;;;;;;;;;20.70;53.30;;;;;;4158960;28;19920;-85
2023/06/28 08:45:04;;;;;;;;;;;20.80;53.30;;;;;;4143760;28;19914;-84
2023/06/28 08:47:06;;;;;;;;;;;20.80;52.50;;;;;;4146633;28;19917;-84
2023/06/28 08:49:07;;;;;;;;;;;20.80;51.90;;;;;;4147001;28;19917;-83
2023/06/28 08:51:08;;;;;;;;;;;20.90;51.50;;;;;;4145428;28;19929;-82
2023/06/28 08:53:16;;;;;;;;;;;20.90;51.90;;;;;;4159486;28;19921;-84
2023/06/28 08:55:20;;;;;;;;;;;20.90;52.00;;;;;;4163877;28;19979;-84
2023/06/28 08:57:40;;;;;;;;;;;21.00;52.00;;;;;;4151839;28;19982;-85
2023/06/28 09:00:03;;;;;;;;;;;21.00;51.20;;;;;;4147934;28;20028;-83
2023/06/28 09:02:23;;;;;;;;;;;21.10;51.30;;;;;;4162281;28;20295;-84
2023/06/28 09:04:29;;;;;;;;;;;21.20;50.60;;;;;;4134654;28;19922;-84
2023/06/28 09:06:50;;;;;;;;;;;21.20;50.70;;;;;;4162391;28;19913;-83
2023/06/28 09:09:11;;;;;;;;;;;21.30;50.60;;;;;;4147866;28;19925;-84
2023/06/28 09:11:32;;;;;;;;;;;21.40;49.80;;;;;;4144818;28;20588;-85
2023/06/28 09:13:56;;;;;;;;;;;21.40;49.50;;;;;;4159572;28;20459;-85
2023/06/28 09:16:17;;;;;;;;;;;21.50;49.80;;;;;;4162709;28;20470;-83
2023/06/28 09:18:37;;;;;;;;;;;21.60;50.20;;;;;;4159869;28;19927;-84
2023/06/28 09:20:58;;;;;;;;;;;21.60;50.20;;;;;;4170263;28;19913;-84
2023/06/28 09:23:26;;;;;;;;;;;21.70;49.90;;;;;;4168297;28;19921;-82
2023/06/28 09:25:49;;;;;;;;;;;21.80;49.60;;;;;;4159721;28;20040;-83
2023/06/28 09:28:09;;;;;;;;;;;21.80;48.50;;;;;;4160950;28;20453;-82
2023/06/28 09:30:30;;;;;;;;;;;21.90;49.40;;;;;;4160609;28;21026;-83
2023/06/28 09:32:51;;;;;;;;;;;21.90;48.90;;;;;;4158421;28;19917;-83
2023/06/28 09:35:11;;;;;;;;;;;22.00;48.40;;;;;;4160397;28;19913;-82
2023/06/28 09:37:32;;;;;;;;;;;22.10;48.70;;;;;;4154570;28;20298;-84
2023/06/28 09:39:55;;;;;;;;;;;22.10;47.80;;;;;;4160934;28;19917;-83
2023/06/28 09:42:16;;;;;;;;;;;22.20;48.00;;;;;;4160369;28;20331;-84
2023/06/28 09:44:37;;;;;;;;;;;22.10;46.90;;;;;;4145381;28;20346;-83
2023/06/28 09:47:01;;;;;;;;;;;22.20;47.00;;;;;;4161587;28;20326;-85
2023/06/28 09:49:23;;;;;;;;;;;22.10;46.40;;;;;;4158589;28;20353;-81
2023/06/28 09:51:43;;;;;;;;;;;22.20;47.10;;;;;;4157329;28;20482;-84
2023/06/28 09:54:04;;;;;;;;;;;22.20;47.20;;;;;;4162009;28;20387;-83
2023/06/28 09:56:33;;;;;;;;;;;22.20;47.10;;;;;;4159290;28;19909;-83
2023/06/28 09:58:54;;;;;;;;;;;22.30;47.50;;;;;;4157870;28;20441;-84
2023/06/28 10:01:15;;;;;;;;;;;22.30;47.00;;;;;;4160452;28;20341;-85
2023/06/28 10:03:38;;;;;;;;;;;22.30;47.10;;;;;;4160499;28;20326;-82
2023/06/28 10:05:59;;;;;;;;;;;22.30;47.20;;;;;;4159390;28;19966;-81
2023/06/28 10:08:20;;;;;;;;;;;22.40;47.00;;;;;;4160284;28;19966;-83
2023/06/28 10:10:41;;;;;;;;;;;22.40;47.40;;;;;;4158365;28;19921;-81
2023/06/28 10:13:05;;;;;;;;;;;22.50;46.10;;;;;;4161289;28;20136;-82
2023/06/28 10:15:29;;;;;;;;;;;22.50;47.40;;;;;;4147073;28;19917;-83
2023/06/28 10:17:50;;;;;;;;;;;22.60;47.20;;;;;;4141577;28;19940;-82
2023/06/28 10:20:11;;;;;;;;;;;22.70;46.60;;;;;;4160668;28;20303;-84
2023/06/28 10:22:36;;;;;;;;;;;22.70;45.20;;;;;;4154320;28;19921;-83
2023/06/28 10:24:38;;;;;;;;;;;22.80;45.20;;;;;;4157036;28;20383;-83
2023/06/28 10:26:41;;;;;;;;;;;22.80;45.40;;;;;;4143140;28;19944;-83
2023/06/28 10:28:41;;;;;;;;;;;22.90;45.70;;;;;;4146046;28;19987;-83
2023/06/28 10:30:42;;;;;;;;;;;22.90;45.80;;;;;;4162800;28;19981;-83
2023/06/28 10:32:43;;;;;;;;;;;22.90;45.40;;;;;;4145719;28;19913;-83
2023/06/28 10:34:45;;;;;;;;;;;22.90;45.70;;;;;;4142740;28;19918;-84
2023/06/28 10:36:46;;;;;;;;;;;23.00;45.20;;;;;;4157416;28;19984;-82
2023/06/28 10:38:52;;;;;;;;;;;23.10;45.00;;;;;;4139039;28;20004;-84
2023/06/28 10:40:53;;;;;;;;;;;23.10;45.10;;;;;;4159468;28;20371;-82
2023/06/28 10:58:57;;;;;;;;;;;23.10;43.70;;;;;;4385203;23;19960;-88
2023/06/28 11:01:34;;;;;;;;;;;23.00;44.00;;;;;;4174306;28;19987;-89
2023/06/28 11:04:33;;;;;;;;;;;23.00;43.20;;;;;;4170943;28;20278;-88
2023/06/28 11:07:03;;;;;;;;;;;23.00;43.30;;;;;;4122985;28;19930;-87
2023/06/28 11:09:23;;;;;;;;;;;22.90;43.80;;;;;;4120675;28;20795;-87
2023/06/28 11:11:55;;;;;;;;;;;22.90;43.80;;;;;;4136442;28;20382;-88
2023/06/28 11:14:17;;;;;;;;;;;23.00;44.30;;;;;;4154706;28;20303;-90
2023/06/28 11:16:41;;;;;;;;;;;23.00;45.00;;;;;;4171903;28;20313;-88
2023/06/28 11:18:41;;;;;;;;;;;23.00;45.50;;;;;;4156659;28;20621;-87
2023/06/28 11:20:53;;;;;;;;;;;23.00;44.60;;;;;;4159723;28;19929;-86
2023/06/28 11:22:57;;;;;;;;;;;23.10;44.60;;;;;;4148765;28;19921;-89
2023/06/28 11:25:01;;;;;;;;;;;23.10;44.60;;;;;;4134186;28;19913;-87
2023/06/28 11:27:02;;;;;;;;;;;23.10;44.50;;;;;;4171024;28;19959;-86
2023/06/28 11:29:16;;;;;;;;;;;23.10;44.10;;;;;;4160103;28;19913;-92
2023/06/28 11:31:50;;;;;;;;;;;23.10;44.30;;;;;;4145046;28;19968;-95
2023/06/28 11:33:54;;;;;;;;;;;23.20;44.00;;;;;;4166986;28;19948;-92
2023/06/28 11:35:55;;;;;;;;;;;23.20;43.20;;;;;;4171345;28;20306;-93
2023/06/28 11:38:16;;;;;;;;;;;23.30;44.00;;;;;;4148280;28;20472;-93
2023/06/28 11:40:21;;;;;;;;;;;23.30;43.80;;;;;;4170881;28;19925;-92
2023/06/28 11:42:30;;;;;;;;;;;23.30;42.80;;;;;;4177431;28;20368;-93
2023/06/28 11:44:31;;;;;;;;;;;23.30;43.30;;;;;;4148697;28;19919;-91
2023/06/28 11:46:32;;;;;;;;;;;23.30;44.00;;;;;;4164840;28;19917;-92
2023/06/28 11:48:33;;;;;;;;;;;23.40;43.80;;;;;;4175449;28;20016;-90
2023/06/28 11:50:54;;;;;;;;;;;23.30;43.60;;;;;;4164039;28;19924;-94
2023/06/28 11:52:58;;;;;;;;;;;23.40;43.60;;;;;;4151293;28;19914;-92
2023/06/28 11:54:59;;;;;;;;;;;23.40;43.00;;;;;;4150373;28;20045;-93
2023/06/28 11:57:06;;;;;;;;;;;23.40;43.10;;;;;;4185970;28;19921;-93
2023/06/28 12:05:05;;;;;;;;;;;23.40;43.50;;;;;;4138002;28;19918;-85
2023/06/28 12:09:20;;;;;;;;;;;23.30;43.20;;;;;;4311957;23;19940;-84
2023/06/28 12:11:21;;;;;;;;;;;23.30;43.40;;;;;;4171196;28;19932;-84
2023/06/28 12:19:03;;;;;;;;;;;23.30;43.80;;;;;;4332396;23;19930;-84
2023/06/28 12:21:26;;;;;;;;;;;23.30;43.70;;;;;;4166876;28;19928;-84
2023/06/28 12:23:39;;;;;;;;;;;23.20;43.60;;;;;;4141277;28;19990;-83
2023/06/28 12:26:00;;;;;;;;;;;23.20;43.80;;;;;;4146805;28;20004;-83
2023/06/28 12:28:20;;;;;;;;;;;23.30;43.90;;;;;;4163059;28;19999;-84
2023/06/28 12:30:41;;;;;;;;;;;23.20;43.90;;;;;;4170689;28;19929;-84
2023/06/28 12:33:04;;;;;;;;;;;23.20;44.10;;;;;;4177307;28;19913;-85
2023/06/28 12:35:25;;;;;;;;;;;23.20;43.80;;;;;;4161616;28;19921;-84
2023/06/28 12:37:51;;;;;;;;;;;23.10;43.90;;;;;;4164728;28;19944;-85
2023/06/28 12:40:13;;;;;;;;;;;23.10;44.00;;;;;;4174865;28;19978;-85
2023/06/28 12:42:33;;;;;;;;;;;23.00;43.80;;;;;;4178097;28;20388;-84
2023/06/28 12:44:55;;;;;;;;;;;23.00;43.90;;;;;;4175610;28;19978;-84
2023/06/28 12:46:56;;;;;;;;;;;23.00;43.90;;;;;;4177687;28;19928;-84
2023/06/28 12:49:02;;;;;;;;;;;23.00;44.00;;;;;;4160889;28;19913;-82